createdAt,value
2017-11-10T00:00:17.691Z,33.05
2017-11-10T00:02:45.264Z,31.67
2017-11-10T00:05:12.837Z,30.90
2017-11-10T00:07:40.452Z,31.40
2017-11-10T00:10:08.084Z,30.65
2017-11-10T00:12:35.719Z,29.75
2017-11-10T00:15:03.334Z,31.60
2017-11-10T00:17:30.961Z,31.95
2017-11-10T00:19:58.576Z,31.45
2017-11-10T00:22:27.007Z,32.30
2017-11-10T00:24:54.671Z,31.20
2017-11-10T00:27:22.283Z,33.10
2017-11-10T00:29:49.861Z,30.50
2017-11-10T00:32:17.519Z,29.58
2017-11-10T00:34:45.204Z,29.65
2017-11-10T00:37:12.820Z,30.27
2017-11-10T00:39:41.200Z,28.55
2017-11-10T00:42:08.863Z,29.27
2017-11-10T00:44:36.482Z,28.02
2017-11-10T00:47:04.054Z,28.73
2017-11-10T00:49:31.685Z,29.75
2017-11-10T00:51:59.351Z,28.70
2017-11-10T00:54:26.963Z,29.15
2017-11-10T00:56:54.581Z,29.20
2017-11-10T00:59:22.182Z,30.42
2017-11-10T01:01:49.757Z,28.35
2017-11-10T01:04:17.330Z,27.65
2017-11-10T01:06:44.990Z,29.75
2017-11-10T01:09:12.643Z,27.20
2017-11-10T01:11:41.006Z,28.67
2017-11-10T01:14:09.387Z,26.65
2017-11-10T01:16:37.007Z,27.65
2017-11-10T01:19:04.669Z,26.33
2017-11-10T01:21:32.241Z,27.27
2017-11-10T01:23:59.904Z,27.48
2017-11-10T01:26:28.289Z,26.25
2017-11-10T01:28:55.904Z,26.80
2017-11-10T01:31:23.524Z,26.87
2017-11-10T01:33:51.133Z,27.30
2017-11-10T01:36:18.732Z,24.12
2017-11-10T01:38:46.321Z,26.35
2017-11-10T01:41:13.966Z,23.90
2017-11-10T01:43:41.546Z,23.23
2017-11-10T01:46:09.968Z,23.17
2017-11-10T01:48:42.618Z,23.33
2017-11-10T01:51:10.258Z,22.90
2017-11-10T01:53:38.659Z,23.30
2017-11-10T01:56:06.224Z,22.75
2017-11-10T01:58:33.918Z,22.48
2017-11-10T02:01:01.604Z,22.87
2017-11-10T02:03:29.225Z,22.40
2017-11-10T02:05:56.859Z,21.62
2017-11-10T02:08:25.213Z,21.60
2017-11-10T02:10:52.796Z,21.50
2017-11-10T02:13:20.413Z,21.80
2017-11-10T02:15:48.054Z,20.48
2017-11-10T02:18:15.648Z,18.73
2017-11-10T02:20:43.322Z,20.02
2017-11-10T02:23:10.958Z,19.87
2017-11-10T02:25:38.622Z,20.55
2017-11-10T02:28:06.292Z,19.10
2017-11-10T02:30:33.959Z,21.90
2017-11-10T02:33:01.590Z,18.92
2017-11-10T02:35:29.227Z,21.02
2017-11-10T02:37:56.886Z,18.37
2017-11-10T02:40:24.563Z,19.42
2017-11-10T02:42:52.209Z,20.65
2017-11-10T02:45:19.829Z,19.52
2017-11-10T02:47:47.459Z,20.48
2017-11-10T02:50:15.078Z,20.23
2017-11-10T02:52:42.710Z,19.40
2017-11-10T02:55:10.358Z,18.45
2017-11-10T02:57:37.988Z,19.27
2017-11-10T03:00:05.636Z,19.65
2017-11-10T03:02:33.256Z,17.60
2017-11-10T03:05:00.878Z,17.90
2017-11-10T03:07:28.520Z,17.40
2017-11-10T03:09:56.203Z,16.92
2017-11-10T03:12:23.870Z,16.87
2017-11-10T03:14:51.566Z,18.12
2017-11-10T03:17:19.174Z,19.60
2017-11-10T03:19:47.549Z,18.33
2017-11-10T03:22:15.925Z,18.00
2017-11-10T03:24:44.308Z,16.95
2017-11-10T03:27:12.659Z,17.30
2017-11-10T03:29:40.302Z,15.85
2017-11-10T03:32:07.932Z,16.27
2017-11-10T03:34:35.500Z,16.87
2017-11-10T03:37:03.150Z,15.25
2017-11-10T03:39:30.774Z,17.10
2017-11-10T03:41:58.410Z,18.17
2017-11-10T03:44:26.044Z,18.55
2017-11-10T03:46:53.674Z,15.60
2017-11-10T03:49:22.088Z,15.25
2017-11-10T03:51:49.722Z,15.88
2017-11-10T03:54:17.380Z,16.00
2017-11-10T03:56:45.780Z,16.10
2017-11-10T03:59:14.010Z,17.08
2017-11-10T04:01:42.221Z,17.37
2017-11-10T04:04:10.366Z,16.58
2017-11-10T04:06:38.704Z,16.45
2017-11-10T04:09:06.877Z,17.50
2017-11-10T04:11:35.197Z,16.83
2017-11-10T04:14:03.684Z,16.05
2017-11-10T04:16:31.985Z,16.30
2017-11-10T04:19:01.049Z,16.70
2017-11-10T04:21:29.318Z,16.17
2017-11-10T04:23:57.562Z,16.25
2017-11-10T04:26:25.763Z,16.90
2017-11-10T04:28:54.202Z,16.70
2017-11-10T04:31:22.568Z,17.02
2017-11-10T04:33:51.532Z,17.12
2017-11-10T04:36:19.865Z,15.85
2017-11-10T04:38:48.186Z,15.70
2017-11-10T04:41:17.383Z,15.73
2017-11-10T04:43:45.720Z,15.27
2017-11-10T04:46:13.981Z,17.12
2017-11-10T04:48:42.415Z,16.85
2017-11-10T04:51:10.756Z,16.52
2017-11-10T04:53:38.928Z,17.48
2017-11-10T04:56:07.798Z,16.27
2017-11-10T04:58:36.027Z,16.00
2017-11-10T05:01:04.411Z,15.20
2017-11-10T05:03:32.723Z,14.68
2017-11-10T05:06:00.902Z,15.40
2017-11-10T05:08:29.174Z,15.93
2017-11-10T05:10:57.375Z,14.52
2017-11-10T05:13:25.867Z,15.95
2017-11-10T05:15:55.610Z,16.50
2017-11-10T05:18:23.990Z,15.15
2017-11-10T05:20:52.277Z,15.07
2017-11-10T05:23:20.480Z,16.02
2017-11-10T05:25:48.720Z,16.05
2017-11-10T05:28:17.054Z,14.23
2017-11-10T05:30:45.585Z,15.55
2017-11-10T05:33:13.875Z,15.88
2017-11-10T05:35:42.125Z,16.25
2017-11-10T05:38:10.912Z,15.27
2017-11-10T05:40:39.234Z,16.12
2017-11-10T05:43:07.509Z,14.50
2017-11-10T05:45:35.958Z,15.93
2017-11-10T05:48:04.331Z,16.02
2017-11-10T05:50:32.568Z,15.90
2017-11-10T05:53:02.015Z,15.45
2017-11-10T05:55:30.282Z,15.40
2017-11-10T05:57:58.447Z,14.75
2017-11-10T06:00:27.406Z,15.20
2017-11-10T06:02:55.828Z,14.25
2017-11-10T06:05:23.968Z,15.30
2017-11-10T06:07:52.195Z,14.87
2017-11-10T06:10:20.398Z,14.65
2017-11-10T06:12:48.749Z,14.48
2017-11-10T06:15:16.870Z,14.77
2017-11-10T06:17:45.080Z,14.77
2017-11-10T06:20:13.422Z,15.15
2017-11-10T06:22:41.624Z,13.60
2017-11-10T06:25:09.808Z,15.05
2017-11-10T06:27:38.015Z,14.80
2017-11-10T06:30:06.371Z,15.13
2017-11-10T06:32:35.363Z,14.32
2017-11-10T06:35:03.496Z,14.38
2017-11-10T06:37:31.769Z,12.60
2017-11-10T06:39:59.918Z,13.85
2017-11-10T06:42:28.118Z,14.52
2017-11-10T06:44:56.280Z,13.90
2017-11-10T06:47:24.450Z,13.65
2017-11-10T06:49:52.775Z,14.35
2017-11-10T06:52:20.918Z,14.63
2017-11-10T06:54:49.239Z,14.43
2017-11-10T06:57:17.473Z,12.43
2017-11-10T06:59:46.566Z,14.10
2017-11-10T07:02:14.779Z,13.65
2017-11-10T07:04:42.958Z,13.45
2017-11-10T07:07:12.281Z,15.73
2017-11-10T07:09:40.388Z,15.10
2017-11-10T07:12:08.614Z,14.43
2017-11-10T07:14:36.804Z,14.20
2017-11-10T07:17:05.113Z,14.75
2017-11-10T07:19:33.336Z,14.50
2017-11-10T07:22:01.613Z,14.35
2017-11-10T07:24:29.728Z,13.65
2017-11-10T07:26:57.950Z,13.43
2017-11-10T07:29:26.103Z,14.23
2017-11-10T07:31:54.269Z,13.50
2017-11-10T07:34:22.409Z,13.82
2017-11-10T07:36:50.611Z,13.30
2017-11-10T07:39:18.777Z,12.82
2017-11-10T07:41:46.927Z,13.35
2017-11-10T07:44:15.003Z,14.32
2017-11-10T07:46:43.153Z,12.82
2017-11-10T07:49:11.261Z,14.70
2017-11-10T07:51:40.169Z,13.77
2017-11-10T07:54:09.161Z,12.95
2017-11-10T07:56:37.172Z,12.77
2017-11-10T07:59:10.737Z,12.65
2017-11-10T08:01:38.983Z,14.15
2017-11-10T08:04:07.133Z,13.82
2017-11-10T08:06:35.293Z,12.32
2017-11-10T08:09:03.470Z,14.95
2017-11-10T08:11:32.775Z,12.75
2017-11-10T08:14:00.938Z,13.93
2017-11-10T08:16:29.135Z,14.05
2017-11-10T08:18:57.354Z,13.70
2017-11-10T08:21:25.571Z,12.90
2017-11-10T08:23:53.702Z,12.37
2017-11-10T08:26:21.831Z,13.38
2017-11-10T08:28:50.231Z,14.02
2017-11-10T08:31:18.412Z,13.10
2017-11-10T08:33:46.635Z,13.75
2017-11-10T08:36:14.820Z,13.40
2017-11-10T08:38:43.735Z,13.10
2017-11-10T08:41:11.881Z,14.48
2017-11-10T08:43:40.124Z,14.05
2017-11-10T08:46:09.530Z,13.57
2017-11-10T08:48:37.699Z,13.73
2017-11-10T08:51:05.874Z,15.45
2017-11-10T08:53:34.636Z,15.10
2017-11-10T08:56:02.680Z,15.70
2017-11-10T08:58:30.847Z,15.65
2017-11-10T09:00:58.977Z,14.93
2017-11-10T09:03:27.153Z,16.67
2017-11-10T09:05:55.261Z,18.45
2017-11-10T09:08:23.529Z,18.27
2017-11-10T09:10:51.653Z,18.77
2017-11-10T09:13:19.851Z,19.00
2017-11-10T09:15:47.827Z,19.12
2017-11-10T09:18:15.871Z,19.80
2017-11-10T09:20:47.527Z,20.23
2017-11-10T09:23:15.582Z,20.58
2017-11-10T09:25:43.588Z,19.90
2017-11-10T09:28:28.966Z,20.75
2017-11-10T09:31:18.130Z,18.85
2017-11-10T09:34:01.060Z,20.83
2017-11-10T09:36:35.923Z,21.37
2017-11-10T09:39:24.693Z,20.55
2017-11-10T09:41:54.831Z,18.40
2017-11-10T09:44:40.539Z,18.52
2017-11-10T09:47:15.069Z,19.30
2017-11-10T09:49:51.484Z,33.60
2017-11-10T09:52:43.745Z,55.80
2017-11-10T09:55:15.232Z,77.03
2017-11-10T09:58:05.111Z,73.40
2017-11-10T10:03:46.880Z,66.90
2017-11-10T10:06:16.944Z,78.30
2017-11-10T10:09:01.731Z,49.50
2017-11-10T10:11:50.363Z,19.80
2017-11-10T10:14:24.199Z,16.95
2017-11-10T10:17:02.583Z,17.73
2017-11-10T10:19:54.132Z,16.40
2017-11-10T10:22:39.456Z,17.70
2017-11-10T10:25:07.658Z,16.87
2017-11-10T10:27:39.516Z,15.85
2017-11-10T10:30:07.872Z,14.93
2017-11-10T10:32:36.245Z,15.30
2017-11-10T10:35:05.235Z,15.35
2017-11-10T10:37:33.623Z,14.63
2017-11-10T10:40:02.002Z,16.98
2017-11-10T10:42:30.354Z,17.60
2017-11-10T10:44:58.439Z,17.65
2017-11-10T10:47:27.722Z,16.95
2017-11-10T10:49:59.363Z,17.15
2017-11-10T10:52:28.639Z,18.85
2017-11-10T10:55:01.236Z,17.40
2017-11-10T10:57:30.028Z,17.70
2017-11-10T10:59:59.362Z,18.17
2017-11-10T11:02:28.803Z,18.17
2017-11-10T11:04:57.449Z,17.55
2017-11-10T11:07:27.196Z,19.00
2017-11-10T11:09:55.477Z,18.23
2017-11-10T11:12:23.923Z,18.08
2017-11-10T11:14:51.952Z,17.00
2017-11-10T11:17:21.121Z,17.85
2017-11-10T11:19:49.303Z,18.25
2017-11-10T11:22:17.539Z,17.75
2017-11-10T11:24:46.609Z,17.65
2017-11-10T11:27:14.743Z,16.52
2017-11-10T11:29:42.815Z,17.98
2017-11-10T11:32:12.044Z,18.65
2017-11-10T11:34:40.166Z,17.58
2017-11-10T11:37:08.860Z,17.30
2017-11-10T11:39:37.632Z,16.65
2017-11-10T11:42:05.810Z,18.73
2017-11-10T11:44:34.310Z,17.67
2017-11-10T12:59:26.687Z,13.55
2017-11-10T13:01:56.087Z,13.60
2017-11-10T13:07:01.417Z,14.23
2017-11-10T13:09:29.617Z,14.32
2017-11-10T13:11:57.808Z,14.40
2017-11-10T13:14:34.847Z,18.48
2017-11-10T13:17:08.507Z,14.18
2017-11-10T13:22:35.682Z,15.00
2017-11-10T13:25:06.663Z,14.95
2017-11-10T13:27:34.907Z,15.00
2017-11-10T13:30:05.007Z,14.52
2017-11-10T13:32:33.610Z,13.32
2017-11-10T13:35:02.775Z,17.05
2017-11-10T13:37:31.611Z,17.25
2017-11-10T13:39:59.800Z,17.27
2017-11-10T13:42:28.691Z,17.58
2017-11-10T13:44:59.195Z,15.75
2017-11-10T13:47:27.701Z,14.73
2017-11-10T13:49:55.978Z,15.15
2017-11-10T13:52:24.356Z,16.98
2017-11-10T13:54:52.532Z,15.02
2017-11-10T13:57:20.812Z,17.17
2017-11-10T13:59:49.137Z,14.10
2017-11-10T14:02:17.260Z,14.40
2017-11-10T14:04:45.431Z,11.27
2017-11-10T14:07:13.606Z,12.95
2017-11-10T14:09:41.677Z,12.35
2017-11-10T14:12:09.819Z,12.15
2017-11-10T14:14:37.925Z,12.30
2017-11-10T14:17:06.243Z,11.30
2017-11-10T14:19:34.433Z,13.50
2017-11-10T14:22:02.589Z,11.35
2017-11-10T14:24:30.775Z,9.85
2017-11-10T14:26:59.139Z,13.85
2017-11-10T14:29:27.663Z,11.88
2017-11-10T14:31:56.790Z,11.15
2017-11-10T14:34:27.110Z,9.13
2017-11-10T14:36:55.524Z,9.80
2017-11-10T14:39:24.100Z,10.77
2017-11-10T14:41:53.545Z,10.02
2017-11-10T14:44:21.953Z,9.30
2017-11-10T14:46:59.551Z,9.15
2017-11-10T14:49:28.212Z,9.88
2017-11-10T14:51:56.306Z,8.18
2017-11-10T14:54:29.379Z,8.45
2017-11-10T14:56:57.917Z,9.05
2017-11-10T14:59:27.386Z,6.75
2017-11-10T15:01:57.788Z,7.43
2017-11-10T15:04:29.291Z,8.07
2017-11-10T15:06:56.901Z,8.43
2017-11-10T15:09:24.525Z,9.00
2017-11-10T15:11:52.163Z,9.95
2017-11-10T15:14:19.795Z,12.85
2017-11-10T15:16:47.581Z,11.90
2017-11-10T15:19:15.204Z,20.33
2017-11-10T15:21:42.790Z,17.33
2017-11-10T15:24:10.414Z,12.85
2017-11-10T15:26:38.055Z,17.37
2017-11-10T15:29:05.682Z,11.90
2017-11-10T15:31:33.260Z,20.92
2017-11-10T15:34:00.887Z,14.82
2017-11-10T15:36:28.518Z,12.68
2017-11-10T15:38:58.394Z,11.52
2017-11-10T15:41:26.100Z,13.45
2017-11-10T15:43:54.603Z,9.45
2017-11-10T15:46:22.331Z,11.07
2017-11-10T15:48:52.652Z,10.60
2017-11-10T15:51:20.272Z,12.13
2017-11-10T15:53:47.939Z,7.60
2017-11-10T15:56:18.021Z,9.00
2017-11-10T15:58:45.790Z,7.60
2017-11-10T16:01:13.656Z,7.68
2017-11-10T16:03:42.732Z,8.15
2017-11-10T16:06:10.400Z,7.62
2017-11-10T16:08:37.979Z,8.65
2017-11-10T16:11:07.692Z,8.02
2017-11-10T16:13:35.316Z,7.95
2017-11-10T16:16:02.984Z,7.75
2017-11-10T16:18:30.667Z,7.75
2017-11-10T16:20:58.288Z,8.32
2017-11-10T16:23:25.876Z,8.45
2017-11-10T16:25:54.279Z,9.85
2017-11-10T16:28:21.891Z,7.87
2017-11-10T16:30:49.503Z,7.78
2017-11-10T16:33:18.576Z,8.23
2017-11-10T16:35:46.198Z,9.10
2017-11-10T16:38:13.817Z,8.88
2017-11-10T16:40:41.428Z,8.43
2017-11-10T16:43:09.219Z,8.50
2017-11-10T16:45:36.800Z,8.88
2017-11-10T16:48:04.439Z,9.05
2017-11-10T16:50:32.787Z,10.60
2017-11-10T16:53:00.401Z,9.95
2017-11-10T16:55:28.064Z,9.15
2017-11-10T16:57:56.322Z,9.05
2017-11-10T17:00:23.999Z,8.77
2017-11-10T17:02:54.304Z,9.75
2017-11-10T17:05:22.020Z,10.20
2017-11-10T17:07:53.330Z,10.15
2017-11-10T17:10:20.961Z,9.70
2017-11-10T17:12:48.672Z,8.85
2017-11-10T17:15:17.260Z,11.05
2017-11-10T17:17:44.903Z,11.30
2017-11-10T17:20:12.896Z,9.75
2017-11-10T17:22:40.603Z,10.18
2017-11-10T17:25:09.527Z,10.30
2017-11-10T17:27:37.287Z,10.15
2017-11-10T17:30:04.900Z,11.02
2017-11-10T17:32:32.476Z,10.75
2017-11-10T17:35:00.306Z,11.05
2017-11-10T17:37:27.978Z,10.85
2017-11-10T17:39:55.613Z,11.80
2017-11-10T17:42:23.238Z,11.40
2017-11-10T17:44:51.655Z,11.50
2017-11-10T17:47:19.447Z,15.73
2017-11-10T17:49:47.091Z,14.30
2017-11-10T17:52:14.992Z,13.85
2017-11-10T17:54:42.618Z,13.20
2017-11-10T17:57:10.197Z,13.05
2017-11-10T17:59:37.823Z,12.23
2017-11-10T18:02:05.446Z,12.68
2017-11-10T18:04:33.159Z,14.50
2017-11-10T18:07:01.045Z,13.82
2017-11-10T18:09:28.657Z,14.23
2017-11-10T18:11:57.041Z,14.23
2017-11-10T18:14:25.523Z,12.32
2017-11-10T18:16:53.211Z,11.27
2017-11-10T18:19:20.852Z,10.85
2017-11-10T18:21:52.706Z,11.88
2017-11-10T18:24:20.335Z,10.80
2017-11-10T18:26:47.979Z,11.60
2017-11-10T18:29:15.740Z,11.85
2017-11-10T18:31:43.453Z,12.70
2017-11-10T18:34:11.844Z,12.30
2017-11-10T18:36:39.483Z,12.13
2017-11-10T18:39:11.321Z,14.45
2017-11-10T18:41:39.116Z,11.15
2017-11-10T18:44:07.468Z,22.08
2017-11-10T18:46:35.224Z,13.07
2017-11-10T18:49:09.004Z,12.43
2017-11-10T18:51:36.639Z,30.52
2017-11-10T18:54:04.353Z,13.13
2017-11-10T18:56:32.027Z,17.58
2017-11-10T18:59:00.321Z,9.60
2017-11-10T19:01:28.713Z,8.43
2017-11-10T19:03:56.329Z,7.80
2017-11-10T19:06:23.933Z,9.65
2017-11-10T19:08:52.306Z,9.00
2017-11-10T19:11:19.927Z,9.15
2017-11-10T19:13:47.540Z,8.00
2017-11-10T19:16:15.232Z,11.90
2017-11-10T19:18:42.895Z,9.88
2017-11-10T19:21:10.521Z,8.98
2017-11-10T19:23:38.903Z,6.85
2017-11-10T19:26:06.513Z,6.62
2017-11-10T19:28:34.125Z,6.90
2017-11-10T19:31:01.801Z,5.70
2017-11-10T19:33:29.415Z,5.82
2017-11-10T19:35:57.056Z,6.20
2017-11-10T19:38:24.757Z,6.15
2017-11-10T19:40:52.363Z,5.60
2017-11-10T19:43:19.971Z,6.20
2017-11-10T19:45:47.579Z,6.25
2017-11-10T19:48:15.185Z,6.32
2017-11-10T19:50:42.971Z,7.00
2017-11-10T19:53:10.577Z,5.62
2017-11-10T19:55:38.229Z,5.30
2017-11-10T19:58:05.832Z,5.47
2017-11-10T20:00:33.439Z,4.70
2017-11-10T20:03:01.137Z,4.25
2017-11-10T20:05:28.955Z,3.45
2017-11-10T20:07:56.615Z,3.60
2017-11-10T20:10:25.378Z,2.92
2017-11-10T20:12:52.984Z,3.35
2017-11-10T20:15:20.660Z,2.67
2017-11-10T20:17:48.318Z,2.92
2017-11-10T20:20:15.924Z,1.92
2017-11-10T20:22:43.551Z,2.15
2017-11-10T20:25:11.193Z,1.70
2017-11-10T20:27:38.875Z,1.60
2017-11-10T20:30:06.566Z,1.60
2017-11-10T20:32:34.174Z,1.27
2017-11-10T20:35:01.786Z,2.50
2017-11-10T20:37:29.417Z,3.30
2017-11-10T20:39:57.056Z,1.92
2017-11-10T20:42:26.643Z,2.60
2017-11-10T20:44:55.033Z,2.28
2017-11-10T20:47:25.580Z,2.70
2017-11-10T20:49:53.196Z,2.00
2017-11-10T20:52:20.943Z,1.50
2017-11-10T20:54:49.782Z,1.80
2017-11-10T20:57:18.254Z,1.70
2017-11-10T20:59:45.871Z,1.70
2017-11-10T21:02:13.479Z,1.85
2017-11-10T21:04:41.104Z,1.62
2017-11-10T21:07:10.734Z,1.92
2017-11-10T21:09:38.298Z,1.75
2017-11-10T21:12:05.904Z,1.60
2017-11-10T21:14:33.483Z,1.35
2017-11-10T21:17:01.095Z,1.50
2017-11-10T21:19:28.748Z,1.17
2017-11-10T21:22:02.652Z,1.20
2017-11-10T21:24:30.269Z,1.20
2017-11-10T21:26:57.883Z,2.53
2017-11-10T21:29:25.500Z,1.60
2017-11-10T21:31:53.304Z,1.20
2017-11-10T21:34:21.723Z,1.77
2017-11-10T21:36:49.296Z,1.73
2017-11-10T21:39:16.908Z,1.75
2017-11-10T21:41:45.287Z,1.45
2017-11-10T21:44:13.631Z,2.17
2017-11-10T21:46:41.248Z,1.23
2017-11-10T21:49:19.495Z,1.92
2017-11-10T21:51:47.075Z,1.37
2017-11-10T21:54:14.852Z,1.60
2017-11-10T21:56:43.252Z,1.50
2017-11-10T21:59:10.913Z,1.73
2017-11-10T22:01:38.515Z,1.50
2017-11-10T22:04:06.247Z,1.52
2017-11-10T22:06:33.863Z,1.67
2017-11-10T22:09:01.479Z,1.48
2017-11-10T22:11:29.400Z,1.60
2017-11-10T22:13:57.124Z,1.42
2017-11-10T22:16:24.811Z,1.40
2017-11-10T22:18:52.404Z,1.55
2017-11-10T22:21:20.043Z,1.87
2017-11-10T22:23:47.755Z,2.08
2017-11-10T22:26:15.431Z,1.17
2017-11-10T22:28:43.170Z,1.80
2017-11-10T22:31:10.775Z,1.55
2017-11-10T22:33:38.640Z,1.60
2017-11-10T22:36:06.263Z,2.62
2017-11-10T22:38:33.962Z,1.60
2017-11-10T22:41:01.669Z,1.70
2017-11-10T22:43:30.015Z,2.42
2017-11-10T22:45:57.628Z,1.73
2017-11-10T22:48:25.337Z,1.90
2017-11-10T22:50:53.259Z,1.62
2017-11-10T22:53:20.916Z,1.58
2017-11-10T22:55:49.467Z,2.40
2017-11-10T22:58:17.116Z,2.05
2017-11-10T23:00:44.691Z,1.70
2017-11-10T23:03:12.324Z,2.28
2017-11-10T23:05:39.947Z,1.77
2017-11-10T23:08:07.676Z,1.75
2017-11-10T23:10:35.431Z,1.50
2017-11-10T23:13:08.176Z,1.85
2017-11-10T23:18:08.474Z,1.65
2017-11-10T23:20:36.155Z,2.00
2017-11-10T23:23:04.795Z,1.48
2017-11-10T23:25:32.364Z,2.45
2017-11-10T23:27:59.996Z,2.20
2017-11-10T23:30:27.647Z,1.90
2017-11-10T23:32:55.287Z,2.50
2017-11-10T23:35:24.222Z,1.65
2017-11-10T23:37:51.802Z,1.50
2017-11-10T23:40:19.546Z,2.40
2017-11-10T23:42:48.960Z,2.15
2017-11-10T23:45:16.614Z,2.33
2017-11-10T23:47:44.335Z,2.00
2017-11-10T23:50:12.453Z,2.45
2017-11-10T23:52:40.384Z,2.67
2017-11-10T23:55:08.003Z,3.28
2017-11-10T23:57:35.729Z,2.95
